• Join FlightAware (Why Join?)
  • Login
  • US Flag 
12:04PM EDT


 

Airport Tracker/Info


-or-


 

Live Flight TrackerFlight Track Log ✈ N2193W ✈ 02-Jul-2013 ✈ KDWH - KACT

Flight Track Log - Related Links

Times and Time Zones

All times are in EDT time to prevent confusion due to time zone crossing. See the N2193W flight status page for this flight to view local times or setup timezone preferences in your user account.

Time Position Orientation Groundspeed Altitude Reporting Facility
EDT Latitude Longitude Course Direction KTS MPH feet Rate Location/Type
04:04PM 30.0711 -95.5547 330° Northwest 108 124 600  Level Houston Center
04:05PM 30.0867 -95.5650 330° Northwest 112 129 1,000 600 Climbing Houston Center
04:06PM 30.1000 -95.5739 330° Northwest 103 119 1,400 540 Climbing Houston Center
04:07PM 30.1236 -95.5975 319° Northwest 107 123 2,000 600 Climbing Houston Center
04:08PM 30.1500 -95.6297 313° West 112 129 2,700 600 Climbing Houston Center
04:09PM 30.1725 -95.6556 315° West 113 130 3,300 540 Climbing Houston Center
04:10PM 30.1956 -95.6800 318° Northwest 113 130 3,900 540 Climbing Houston Center
04:11PM 30.2217 -95.7061 319° Northwest 121 139 4,500 240 Climbing Houston Center
04:12PM 30.2481 -95.7347 317° Northwest 128 147 4,500 240 Level Houston Center
04:13PM 30.2792 -95.7681 317° Northwest 129 148 5,000 420 Climbing Houston Center
04:14PM 30.3047 -95.7964 316° Northwest 128 147 5,400 420 Climbing Houston Center
04:15PM 30.3292 -95.8231 317° Northwest 123 142 5,900 420 Climbing Houston Center
04:16PM 30.3517 -95.8481 316° Northwest 115 132 6,300 240 Climbing Houston Center
04:17PM 30.3769 -95.8733 319° Northwest 120 138 6,500 60 Climbing Houston Center
04:18PM 30.4042 -95.9036 316° Northwest 133 153 6,500  Level Houston Center
04:19PM 30.4344 -95.9364 317° Northwest 125 144 6,600  Climbing Houston Center
04:20PM 30.4619 -95.9653 318° Northwest 132 152 6,600  Level Houston Center
04:21PM 30.4892 -95.9953 316° Northwest 136 157 6,600  Level Houston Center
04:22PM 30.5169 -96.0242 318° Northwest 136 157 6,600  Level Houston Center
04:23PM 30.5494 -96.0569 319° Northwest 136 157 6,700  Climbing Houston Center
04:24PM 30.5756 -96.0889 314° West 130 150 6,600 -60 Descending Houston Center
04:25PM 30.6031 -96.1172 318° Northwest 135 155 6,600  Level Houston Center
04:26PM 30.6286 -96.1458 316° Northwest 129 148 6,600  Level Houston Center
04:27PM 30.6561 -96.1742 318° Northwest 129 148 6,600  Level Houston Center
04:28PM 30.6842 -96.2075 314° West 134 154 6,600  Level Houston Center
04:30PM 30.7167 -96.2406 319° Northwest 138 159 6,600  Level Houston Center
04:30PM 30.7397 -96.2692 313° West 136 157 6,600  Level Houston Center
04:31PM 30.7717 -96.3022 318° Northwest 142 163 6,600  Level Houston Center
04:33PM 30.8019 -96.3353 317° Northwest 138 159 6,600  Level Houston Center
04:34PM 30.8294 -96.3636 319° Northwest 134 154 6,600  Level Houston Center
04:35PM 30.8572 -96.3947 316° Northwest 136 157 6,600  Level Houston Center
04:36PM 30.8847 -96.4256 316° Northwest 132 152 6,600  Level Houston Center
04:37PM 30.9125 -96.4567 316° Northwest 133 153 6,600  Level Houston Center
04:38PM 30.9400 -96.4853 318° Northwest 136 157 6,600  Level Houston Center
04:39PM 30.9703 -96.5208 315° West 135 155 6,600  Level Houston Center
04:40PM 30.9978 -96.5494 318° Northwest 128 147 6,600  Level Houston Center
04:41PM 31.0239 -96.5772 318° Northwest 128 147 6,600  Level Houston Center
04:42PM 31.0503 -96.6053 318° Northwest 128 147 6,600 -60 Level Houston Center
04:43PM 31.0836 -96.6422 316° Northwest 136 157 6,500 -60 Descending Houston Center
04:44PM 31.1125 -96.6742 317° Northwest 140 161 6,500  Level Houston Center
04:45PM 31.1406 -96.7044 317° Northwest 138 159 6,500  Level Houston Center
04:46PM 31.1678 -96.7347 316° Northwest 136 157 6,500  Level Houston Center
04:47PM 31.1958 -96.7656 317° Northwest 135 155 6,500  Level Houston Center
04:48PM 31.2244 -96.7958 318° Northwest 137 158 6,500  Level Houston Center
04:49PM 31.2536 -96.8289 316° Northwest 140 161 6,500  Level Houston Center
04:50PM 31.2842 -96.8644 315° West 137 158 6,500  Level Houston Center
04:51PM 31.3111 -96.8939 317° Northwest 133 153 6,500  Level Houston Center
04:52PM 31.3389 -96.9236 318° Northwest 133 153 6,500 -240 Level Houston Center
04:53PM 31.3667 -96.9556 316° Northwest 136 157 6,000 -540 Descending Houston Center
04:54PM 31.3939 -96.9853 317° Northwest 135 155 5,400 -600 Descending Houston Center
04:55PM 31.4181 -97.0192 310° West 134 154 4,800 -780 Descending Houston Center
04:56PM 31.4433 -97.0636 304° West 137 158 3,900 -900 Descending Houston Center